sensor_id;sensor_type;location;lat;lon;timestamp;P1;durP1;ratioP1;P2;durP2;ratioP2
40152;SDS011;26371;56.992;23.912;2022-11-20T00:01:39;16.88;;;8.65;;
40152;SDS011;26371;56.992;23.912;2022-11-20T00:06:36;13.93;;;7.20;;
40152;SDS011;26371;56.992;23.912;2022-11-20T00:09:05;13.95;;;7.60;;
40152;SDS011;26371;56.992;23.912;2022-11-20T00:11:33;15.82;;;8.02;;
40152;SDS011;26371;56.992;23.912;2022-11-20T00:14:03;15.23;;;7.82;;
40152;SDS011;26371;56.992;23.912;2022-11-20T00:16:32;15.60;;;7.72;;
40152;SDS011;26371;56.992;23.912;2022-11-20T00:19:01;13.88;;;7.20;;
40152;SDS011;26371;56.992;23.912;2022-11-20T00:21:30;15.63;;;8.20;;
40152;SDS011;26371;56.992;23.912;2022-11-20T00:23:59;17.08;;;8.43;;
40152;SDS011;26371;56.992;23.912;2022-11-20T00:26:28;16.63;;;8.80;;
40152;SDS011;26371;56.992;23.912;2022-11-20T00:28:57;16.92;;;8.82;;
40152;SDS011;26371;56.992;23.912;2022-11-20T00:31:29;15.52;;;7.97;;
40152;SDS011;26371;56.992;23.912;2022-11-20T00:33:59;16.13;;;7.70;;
40152;SDS011;26371;56.992;23.912;2022-11-20T00:36:28;14.07;;;7.43;;
40152;SDS011;26371;56.992;23.912;2022-11-20T00:38:59;15.35;;;7.80;;
40152;SDS011;26371;56.992;23.912;2022-11-20T00:41:28;18.88;;;8.93;;
40152;SDS011;26371;56.992;23.912;2022-11-20T00:43:57;16.52;;;7.65;;
40152;SDS011;26371;56.992;23.912;2022-11-20T00:46:27;19.42;;;8.55;;
40152;SDS011;26371;56.992;23.912;2022-11-20T00:48:57;16.52;;;8.57;;
40152;SDS011;26371;56.992;23.912;2022-11-20T00:51:26;19.97;;;9.67;;
40152;SDS011;26371;56.992;23.912;2022-11-20T00:53:56;22.13;;;10.43;;
40152;SDS011;26371;56.992;23.912;2022-11-20T00:56:26;14.82;;;8.40;;
40152;SDS011;26371;56.992;23.912;2022-11-20T00:58:58;15.17;;;7.83;;
40152;SDS011;26371;56.992;23.912;2022-11-20T01:01:29;15.20;;;7.57;;
40152;SDS011;26371;56.992;23.912;2022-11-20T01:03:59;14.45;;;7.40;;
40152;SDS011;26371;56.992;23.912;2022-11-20T01:06:28;15.68;;;8.40;;
40152;SDS011;26371;56.992;23.912;2022-11-20T01:08:59;19.27;;;9.00;;
40152;SDS011;26371;56.992;23.912;2022-11-20T01:11:30;15.20;;;8.10;;
40152;SDS011;26371;56.992;23.912;2022-11-20T01:14:01;15.23;;;8.27;;
40152;SDS011;26371;56.992;23.912;2022-11-20T01:16:33;17.90;;;9.23;;
40152;SDS011;26371;56.992;23.912;2022-11-20T01:19:04;16.60;;;8.57;;
40152;SDS011;26371;56.992;23.912;2022-11-20T01:21:35;14.70;;;8.27;;
40152;SDS011;26371;56.992;23.912;2022-11-20T01:24:06;16.88;;;8.68;;
40152;SDS011;26371;56.992;23.912;2022-11-20T01:26:37;18.60;;;8.45;;
40152;SDS011;26371;56.992;23.912;2022-11-20T01:29:07;19.13;;;9.20;;
40152;SDS011;26371;56.992;23.912;2022-11-20T01:31:42;14.32;;;7.90;;
40152;SDS011;26371;56.992;23.912;2022-11-20T01:34:12;16.88;;;8.10;;
40152;SDS011;26371;56.992;23.912;2022-11-20T01:36:42;17.70;;;9.43;;
40152;SDS011;26371;56.992;23.912;2022-11-20T01:39:12;14.73;;;7.18;;
40152;SDS011;26371;56.992;23.912;2022-11-20T01:41:42;18.60;;;9.63;;
40152;SDS011;26371;56.992;23.912;2022-11-20T01:44:48;17.75;;;8.55;;
40152;SDS011;26371;56.992;23.912;2022-11-20T01:47:22;15.93;;;7.82;;
40152;SDS011;26371;56.992;23.912;2022-11-20T01:49:55;15.77;;;8.27;;
40152;SDS011;26371;56.992;23.912;2022-11-20T01:52:28;13.95;;;7.60;;
40152;SDS011;26371;56.992;23.912;2022-11-20T01:55:01;13.93;;;7.18;;
40152;SDS011;26371;56.992;23.912;2022-11-20T01:57:34;13.63;;;7.60;;
40152;SDS011;26371;56.992;23.912;2022-11-20T02:00:05;13.07;;;6.85;;
40152;SDS011;26371;56.992;23.912;2022-11-20T02:02:41;17.05;;;8.02;;
40152;SDS011;26371;56.992;23.912;2022-11-20T02:05:14;16.13;;;7.93;;
40152;SDS011;26371;56.992;23.912;2022-11-20T02:07:50;14.05;;;8.07;;
40152;SDS011;26371;56.992;23.912;2022-11-20T02:10:20;16.70;;;8.25;;
40152;SDS011;26371;56.992;23.912;2022-11-20T02:12:49;15.13;;;7.83;;
40152;SDS011;26371;56.992;23.912;2022-11-20T02:15:35;17.80;;;8.05;;
40152;SDS011;26371;56.992;23.912;2022-11-20T02:18:06;15.07;;;8.10;;
40152;SDS011;26371;56.992;23.912;2022-11-20T02:20:35;17.63;;;8.35;;
40152;SDS011;26371;56.992;23.912;2022-11-20T02:23:08;15.95;;;7.60;;
40152;SDS011;26371;56.992;23.912;2022-11-20T02:25:41;16.92;;;8.38;;
40152;SDS011;26371;56.992;23.912;2022-11-20T02:28:11;16.23;;;7.68;;
40152;SDS011;26371;56.992;23.912;2022-11-20T02:30:39;16.13;;;7.97;;
40152;SDS011;26371;56.992;23.912;2022-11-20T02:33:08;16.50;;;8.35;;
40152;SDS011;26371;56.992;23.912;2022-11-20T02:35:39;13.70;;;7.95;;
40152;SDS011;26371;56.992;23.912;2022-11-20T02:38:10;17.00;;;7.85;;
40152;SDS011;26371;56.992;23.912;2022-11-20T02:40:41;15.77;;;8.35;;
40152;SDS011;26371;56.992;23.912;2022-11-20T02:43:09;17.23;;;8.80;;
40152;SDS011;26371;56.992;23.912;2022-11-20T02:45:38;19.02;;;9.32;;
40152;SDS011;26371;56.992;23.912;2022-11-20T02:48:07;18.20;;;8.52;;
40152;SDS011;26371;56.992;23.912;2022-11-20T02:50:38;15.93;;;8.65;;
40152;SDS011;26371;56.992;23.912;2022-11-20T02:53:07;14.90;;;7.85;;
40152;SDS011;26371;56.992;23.912;2022-11-20T02:55:36;14.68;;;7.82;;
40152;SDS011;26371;56.992;23.912;2022-11-20T02:58:06;15.80;;;8.35;;
40152;SDS011;26371;56.992;23.912;2022-11-20T03:00:35;16.48;;;8.82;;
40152;SDS011;26371;56.992;23.912;2022-11-20T03:03:03;18.27;;;8.57;;
40152;SDS011;26371;56.992;23.912;2022-11-20T03:05:32;17.98;;;9.00;;
40152;SDS011;26371;56.992;23.912;2022-11-20T03:08:01;17.15;;;8.27;;
40152;SDS011;26371;56.992;23.912;2022-11-20T03:10:29;14.43;;;7.88;;
40152;SDS011;26371;56.992;23.912;2022-11-20T03:12:58;15.32;;;8.70;;
40152;SDS011;26371;56.992;23.912;2022-11-20T03:15:30;15.27;;;8.02;;
40152;SDS011;26371;56.992;23.912;2022-11-20T03:17:59;16.05;;;8.95;;
40152;SDS011;26371;56.992;23.912;2022-11-20T03:20:28;20.23;;;9.95;;
40152;SDS011;26371;56.992;23.912;2022-11-20T03:22:57;17.17;;;9.25;;
40152;SDS011;26371;56.992;23.912;2022-11-20T03:25:25;16.45;;;9.27;;
40152;SDS011;26371;56.992;23.912;2022-11-20T03:27:54;19.98;;;10.00;;
40152;SDS011;26371;56.992;23.912;2022-11-20T03:30:23;20.30;;;9.70;;
40152;SDS011;26371;56.992;23.912;2022-11-20T03:32:57;16.85;;;9.45;;
40152;SDS011;26371;56.992;23.912;2022-11-20T03:35:26;16.40;;;8.90;;
40152;SDS011;26371;56.992;23.912;2022-11-20T03:37:57;16.20;;;8.65;;
40152;SDS011;26371;56.992;23.912;2022-11-20T03:40:26;18.02;;;9.48;;
40152;SDS011;26371;56.992;23.912;2022-11-20T03:42:54;18.27;;;8.50;;
40152;SDS011;26371;56.992;23.912;2022-11-20T03:45:23;18.08;;;8.98;;
40152;SDS011;26371;56.992;23.912;2022-11-20T03:47:52;15.75;;;8.05;;
40152;SDS011;26371;56.992;23.912;2022-11-20T03:50:23;18.40;;;8.63;;
40152;SDS011;26371;56.992;23.912;2022-11-20T03:52:51;14.02;;;8.23;;
40152;SDS011;26371;56.992;23.912;2022-11-20T03:55:20;18.13;;;8.93;;
40152;SDS011;26371;56.992;23.912;2022-11-20T03:57:49;15.07;;;8.38;;
40152;SDS011;26371;56.992;23.912;2022-11-20T04:00:17;17.63;;;9.55;;
40152;SDS011;26371;56.992;23.912;2022-11-20T04:02:46;18.52;;;9.10;;
40152;SDS011;26371;56.992;23.912;2022-11-20T04:05:15;16.58;;;9.23;;
40152;SDS011;26371;56.992;23.912;2022-11-20T04:07:45;17.77;;;8.82;;
40152;SDS011;26371;56.992;23.912;2022-11-20T04:10:14;18.08;;;9.02;;
40152;SDS011;26371;56.992;23.912;2022-11-20T04:12:42;16.97;;;8.93;;
40152;SDS011;26371;56.992;23.912;2022-11-20T04:15:11;17.52;;;8.93;;
40152;SDS011;26371;56.992;23.912;2022-11-20T04:17:40;17.67;;;8.52;;
40152;SDS011;26371;56.992;23.912;2022-11-20T04:20:09;19.92;;;9.48;;
40152;SDS011;26371;56.992;23.912;2022-11-20T04:22:38;17.50;;;9.18;;
40152;SDS011;26371;56.992;23.912;2022-11-20T04:25:08;16.80;;;9.27;;
40152;SDS011;26371;56.992;23.912;2022-11-20T04:27:39;17.25;;;9.50;;
40152;SDS011;26371;56.992;23.912;2022-11-20T04:30:08;15.48;;;8.32;;
40152;SDS011;26371;56.992;23.912;2022-11-20T04:32:37;19.00;;;9.57;;
40152;SDS011;26371;56.992;23.912;2022-11-20T04:35:06;17.02;;;9.82;;
40152;SDS011;26371;56.992;23.912;2022-11-20T04:37:35;21.42;;;10.20;;
40152;SDS011;26371;56.992;23.912;2022-11-20T04:40:04;18.75;;;9.63;;
40152;SDS011;26371;56.992;23.912;2022-11-20T04:45:04;16.75;;;8.68;;
40152;SDS011;26371;56.992;23.912;2022-11-20T04:47:33;19.75;;;9.50;;
40152;SDS011;26371;56.992;23.912;2022-11-20T04:50:02;17.92;;;8.80;;
40152;SDS011;26371;56.992;23.912;2022-11-20T04:52:31;20.58;;;10.73;;
40152;SDS011;26371;56.992;23.912;2022-11-20T04:54:59;16.75;;;9.57;;
40152;SDS011;26371;56.992;23.912;2022-11-20T04:57:28;19.97;;;10.20;;
40152;SDS011;26371;56.992;23.912;2022-11-20T04:59:59;17.40;;;9.15;;
40152;SDS011;26371;56.992;23.912;2022-11-20T05:02:27;19.83;;;9.95;;
40152;SDS011;26371;56.992;23.912;2022-11-20T05:04:58;18.55;;;9.82;;
40152;SDS011;26371;56.992;23.912;2022-11-20T05:07:27;18.83;;;9.30;;
40152;SDS011;26371;56.992;23.912;2022-11-20T05:09:57;20.52;;;10.02;;
40152;SDS011;26371;56.992;23.912;2022-11-20T05:14:55;19.90;;;10.48;;
40152;SDS011;26371;56.992;23.912;2022-11-20T05:17:25;22.88;;;11.77;;
40152;SDS011;26371;56.992;23.912;2022-11-20T05:19:54;22.08;;;11.77;;
40152;SDS011;26371;56.992;23.912;2022-11-20T05:22:24;20.50;;;10.30;;
40152;SDS011;26371;56.992;23.912;2022-11-20T05:27:21;19.95;;;9.98;;
40152;SDS011;26371;56.992;23.912;2022-11-20T05:29:50;18.33;;;9.18;;
40152;SDS011;26371;56.992;23.912;2022-11-20T05:32:19;20.65;;;9.98;;
40152;SDS011;26371;56.992;23.912;2022-11-20T05:34:49;19.35;;;9.80;;
40152;SDS011;26371;56.992;23.912;2022-11-20T05:37:18;18.77;;;9.57;;
40152;SDS011;26371;56.992;23.912;2022-11-20T05:39:46;17.27;;;8.73;;
40152;SDS011;26371;56.992;23.912;2022-11-20T05:42:15;16.75;;;8.90;;
40152;SDS011;26371;56.992;23.912;2022-11-20T05:44:59;18.17;;;10.02;;
40152;SDS011;26371;56.992;23.912;2022-11-20T05:47:31;18.88;;;9.85;;
40152;SDS011;26371;56.992;23.912;2022-11-20T05:50:02;18.65;;;9.70;;
40152;SDS011;26371;56.992;23.912;2022-11-20T05:52:31;19.42;;;10.77;;
40152;SDS011;26371;56.992;23.912;2022-11-20T05:55:00;19.25;;;10.07;;
40152;SDS011;26371;56.992;23.912;2022-11-20T05:57:29;20.85;;;10.23;;
40152;SDS011;26371;56.992;23.912;2022-11-20T05:59:59;21.05;;;10.52;;
40152;SDS011;26371;56.992;23.912;2022-11-20T06:02:29;21.58;;;10.50;;
40152;SDS011;26371;56.992;23.912;2022-11-20T06:04:58;22.52;;;10.52;;
40152;SDS011;26371;56.992;23.912;2022-11-20T06:07:28;20.17;;;10.82;;
40152;SDS011;26371;56.992;23.912;2022-11-20T06:09:57;23.05;;;11.57;;
40152;SDS011;26371;56.992;23.912;2022-11-20T06:12:26;24.58;;;11.82;;
40152;SDS011;26371;56.992;23.912;2022-11-20T06:14:56;20.20;;;11.05;;
40152;SDS011;26371;56.992;23.912;2022-11-20T06:17:24;22.02;;;10.95;;
40152;SDS011;26371;56.992;23.912;2022-11-20T06:19:53;24.33;;;10.35;;
40152;SDS011;26371;56.992;23.912;2022-11-20T06:22:22;19.40;;;10.48;;
40152;SDS011;26371;56.992;23.912;2022-11-20T06:24:52;19.83;;;10.90;;
40152;SDS011;26371;56.992;23.912;2022-11-20T06:27:21;18.65;;;10.13;;
40152;SDS011;26371;56.992;23.912;2022-11-20T06:29:49;22.80;;;10.20;;
40152;SDS011;26371;56.992;23.912;2022-11-20T06:32:18;18.63;;;10.20;;
40152;SDS011;26371;56.992;23.912;2022-11-20T06:34:47;17.92;;;10.10;;
40152;SDS011;26371;56.992;23.912;2022-11-20T06:37:15;19.73;;;10.80;;
40152;SDS011;26371;56.992;23.912;2022-11-20T06:39:44;19.23;;;10.23;;
40152;SDS011;26371;56.992;23.912;2022-11-20T06:42:14;18.20;;;9.43;;
40152;SDS011;26371;56.992;23.912;2022-11-20T06:44:43;19.48;;;10.27;;
40152;SDS011;26371;56.992;23.912;2022-11-20T06:47:12;18.60;;;10.00;;
40152;SDS011;26371;56.992;23.912;2022-11-20T06:49:40;20.67;;;9.75;;
40152;SDS011;26371;56.992;23.912;2022-11-20T06:52:09;19.83;;;10.45;;
40152;SDS011;26371;56.992;23.912;2022-11-20T06:54:38;19.15;;;10.68;;
40152;SDS011;26371;56.992;23.912;2022-11-20T06:57:06;20.33;;;10.15;;
40152;SDS011;26371;56.992;23.912;2022-11-20T06:59:37;20.02;;;10.52;;
40152;SDS011;26371;56.992;23.912;2022-11-20T07:02:08;19.38;;;9.63;;
40152;SDS011;26371;56.992;23.912;2022-11-20T07:04:38;20.42;;;10.65;;
40152;SDS011;26371;56.992;23.912;2022-11-20T07:07:07;17.97;;;9.63;;
40152;SDS011;26371;56.992;23.912;2022-11-20T07:09:36;18.08;;;10.48;;
40152;SDS011;26371;56.992;23.912;2022-11-20T07:12:05;23.08;;;11.98;;
40152;SDS011;26371;56.992;23.912;2022-11-20T07:14:34;20.77;;;10.93;;
40152;SDS011;26371;56.992;23.912;2022-11-20T07:17:04;23.55;;;12.48;;
40152;SDS011;26371;56.992;23.912;2022-11-20T07:19:35;22.48;;;11.63;;
40152;SDS011;26371;56.992;23.912;2022-11-20T07:22:06;29.88;;;12.93;;
40152;SDS011;26371;56.992;23.912;2022-11-20T07:24:35;23.17;;;11.40;;
40152;SDS011;26371;56.992;23.912;2022-11-20T07:27:10;22.45;;;12.02;;
40152;SDS011;26371;56.992;23.912;2022-11-20T07:29:40;24.20;;;10.80;;
40152;SDS011;26371;56.992;23.912;2022-11-20T07:32:09;25.25;;;12.32;;
40152;SDS011;26371;56.992;23.912;2022-11-20T07:34:37;21.27;;;10.70;;
40152;SDS011;26371;56.992;23.912;2022-11-20T07:37:06;21.42;;;10.75;;
40152;SDS011;26371;56.992;23.912;2022-11-20T07:42:05;21.25;;;10.50;;
40152;SDS011;26371;56.992;23.912;2022-11-20T07:44:37;20.40;;;9.85;;
40152;SDS011;26371;56.992;23.912;2022-11-20T07:47:07;18.35;;;9.38;;
40152;SDS011;26371;56.992;23.912;2022-11-20T07:49:36;23.85;;;10.73;;
40152;SDS011;26371;56.992;23.912;2022-11-20T07:52:05;19.60;;;10.10;;
40152;SDS011;26371;56.992;23.912;2022-11-20T07:54:33;17.67;;;9.75;;
40152;SDS011;26371;56.992;23.912;2022-11-20T07:57:02;21.70;;;10.57;;
40152;SDS011;26371;56.992;23.912;2022-11-20T07:59:31;18.70;;;9.45;;
40152;SDS011;26371;56.992;23.912;2022-11-20T08:02:01;15.70;;;8.95;;
40152;SDS011;26371;56.992;23.912;2022-11-20T08:04:29;19.33;;;9.55;;
40152;SDS011;26371;56.992;23.912;2022-11-20T08:09:28;15.75;;;8.10;;
40152;SDS011;26371;56.992;23.912;2022-11-20T08:11:57;18.70;;;9.77;;
40152;SDS011;26371;56.992;23.912;2022-11-20T08:14:43;20.30;;;10.70;;
40152;SDS011;26371;56.992;23.912;2022-11-20T08:17:13;23.38;;;11.57;;
40152;SDS011;26371;56.992;23.912;2022-11-20T08:19:41;21.55;;;10.57;;
40152;SDS011;26371;56.992;23.912;2022-11-20T08:22:10;21.00;;;11.27;;
40152;SDS011;26371;56.992;23.912;2022-11-20T08:24:39;21.92;;;12.02;;
40152;SDS011;26371;56.992;23.912;2022-11-20T08:27:07;19.30;;;10.70;;
40152;SDS011;26371;56.992;23.912;2022-11-20T08:29:36;23.25;;;11.77;;
40152;SDS011;26371;56.992;23.912;2022-11-20T08:32:05;23.58;;;11.43;;
40152;SDS011;26371;56.992;23.912;2022-11-20T08:34:35;23.52;;;11.65;;
40152;SDS011;26371;56.992;23.912;2022-11-20T08:37:04;27.23;;;12.15;;
40152;SDS011;26371;56.992;23.912;2022-11-20T08:39:32;25.13;;;12.68;;
40152;SDS011;26371;56.992;23.912;2022-11-20T08:42:01;23.75;;;12.85;;
40152;SDS011;26371;56.992;23.912;2022-11-20T08:44:30;24.63;;;12.77;;
40152;SDS011;26371;56.992;23.912;2022-11-20T08:46:58;28.33;;;13.82;;
40152;SDS011;26371;56.992;23.912;2022-11-20T08:51:58;21.25;;;11.68;;
40152;SDS011;26371;56.992;23.912;2022-11-20T08:54:27;21.80;;;12.20;;
40152;SDS011;26371;56.992;23.912;2022-11-20T08:56:56;22.88;;;11.75;;
40152;SDS011;26371;56.992;23.912;2022-11-20T08:59:24;23.95;;;11.82;;
40152;SDS011;26371;56.992;23.912;2022-11-20T09:02:14;25.85;;;13.20;;
40152;SDS011;26371;56.992;23.912;2022-11-20T09:07:13;25.13;;;12.70;;
40152;SDS011;26371;56.992;23.912;2022-11-20T09:09:47;24.77;;;12.68;;
40152;SDS011;26371;56.992;23.912;2022-11-20T09:12:36;25.55;;;12.48;;
40152;SDS011;26371;56.992;23.912;2022-11-20T09:15:05;21.85;;;11.30;;
40152;SDS011;26371;56.992;23.912;2022-11-20T09:17:35;22.42;;;11.75;;
40152;SDS011;26371;56.992;23.912;2022-11-20T09:20:05;25.90;;;13.02;;
40152;SDS011;26371;56.992;23.912;2022-11-20T09:22:38;26.52;;;12.68;;
40152;SDS011;26371;56.992;23.912;2022-11-20T09:25:08;22.90;;;12.85;;
40152;SDS011;26371;56.992;23.912;2022-11-20T09:27:36;21.87;;;12.07;;
40152;SDS011;26371;56.992;23.912;2022-11-20T09:30:06;25.00;;;13.03;;
40152;SDS011;26371;56.992;23.912;2022-11-20T09:32:35;24.08;;;13.40;;
40152;SDS011;26371;56.992;23.912;2022-11-20T09:35:06;26.13;;;12.45;;
40152;SDS011;26371;56.992;23.912;2022-11-20T09:37:37;29.98;;;13.35;;
40152;SDS011;26371;56.992;23.912;2022-11-20T09:40:06;27.70;;;13.35;;
40152;SDS011;26371;56.992;23.912;2022-11-20T09:42:49;26.27;;;13.68;;
40152;SDS011;26371;56.992;23.912;2022-11-20T09:45:36;26.70;;;13.65;;
40152;SDS011;26371;56.992;23.912;2022-11-20T09:48:18;27.73;;;14.63;;
40152;SDS011;26371;56.992;23.912;2022-11-20T09:50:57;27.83;;;14.23;;
40152;SDS011;26371;56.992;23.912;2022-11-20T09:53:35;34.22;;;16.27;;
40152;SDS011;26371;56.992;23.912;2022-11-20T09:56:14;29.65;;;15.02;;
40152;SDS011;26371;56.992;23.912;2022-11-20T09:58:48;27.30;;;13.07;;
40152;SDS011;26371;56.992;23.912;2022-11-20T10:01:20;28.73;;;14.77;;
40152;SDS011;26371;56.992;23.912;2022-11-20T10:03:54;27.48;;;14.48;;
40152;SDS011;26371;56.992;23.912;2022-11-20T10:06:28;28.33;;;15.23;;
40152;SDS011;26371;56.992;23.912;2022-11-20T10:09:03;31.70;;;14.93;;
40152;SDS011;26371;56.992;23.912;2022-11-20T10:11:43;31.30;;;16.95;;
40152;SDS011;26371;56.992;23.912;2022-11-20T10:17:00;32.15;;;15.50;;
40152;SDS011;26371;56.992;23.912;2022-11-20T10:19:42;31.17;;;16.73;;
40152;SDS011;26371;56.992;23.912;2022-11-20T10:22:26;31.77;;;14.85;;
40152;SDS011;26371;56.992;23.912;2022-11-20T10:25:12;30.67;;;14.80;;
40152;SDS011;26371;56.992;23.912;2022-11-20T10:27:53;25.20;;;13.40;;
40152;SDS011;26371;56.992;23.912;2022-11-20T10:30:37;26.17;;;13.32;;
40152;SDS011;26371;56.992;23.912;2022-11-20T10:33:11;27.92;;;13.80;;
40152;SDS011;26371;56.992;23.912;2022-11-20T10:35:44;27.70;;;13.57;;
40152;SDS011;26371;56.992;23.912;2022-11-20T10:38:20;26.50;;;13.90;;
40152;SDS011;26371;56.992;23.912;2022-11-20T10:40:55;30.38;;;14.88;;
40152;SDS011;26371;56.992;23.912;2022-11-20T10:43:47;28.88;;;14.18;;
40152;SDS011;26371;56.992;23.912;2022-11-20T10:46:20;33.78;;;16.42;;
40152;SDS011;26371;56.992;23.912;2022-11-20T10:48:50;28.67;;;15.30;;
40152;SDS011;26371;56.992;23.912;2022-11-20T10:51:33;33.60;;;15.80;;
40152;SDS011;26371;56.992;23.912;2022-11-20T10:54:12;24.50;;;14.48;;
40152;SDS011;26371;56.992;23.912;2022-11-20T10:56:51;26.13;;;13.00;;
40152;SDS011;26371;56.992;23.912;2022-11-20T10:59:27;27.92;;;13.80;;
40152;SDS011;26371;56.992;23.912;2022-11-20T11:02:16;24.88;;;13.73;;
40152;SDS011;26371;56.992;23.912;2022-11-20T11:04:47;27.48;;;13.70;;
40152;SDS011;26371;56.992;23.912;2022-11-20T11:07:19;28.23;;;14.52;;
40152;SDS011;26371;56.992;23.912;2022-11-20T11:09:53;27.75;;;13.90;;
40152;SDS011;26371;56.992;23.912;2022-11-20T11:12:25;27.80;;;14.45;;
40152;SDS011;26371;56.992;23.912;2022-11-20T11:14:56;26.58;;;12.93;;
40152;SDS011;26371;56.992;23.912;2022-11-20T11:17:26;30.20;;;14.93;;
40152;SDS011;26371;56.992;23.912;2022-11-20T11:20:00;27.63;;;14.15;;
40152;SDS011;26371;56.992;23.912;2022-11-20T11:22:32;27.35;;;13.82;;
40152;SDS011;26371;56.992;23.912;2022-11-20T11:25:02;27.00;;;14.70;;
40152;SDS011;26371;56.992;23.912;2022-11-20T11:27:32;30.35;;;15.57;;
40152;SDS011;26371;56.992;23.912;2022-11-20T11:30:03;29.25;;;14.63;;
40152;SDS011;26371;56.992;23.912;2022-11-20T11:32:41;30.00;;;14.82;;
40152;SDS011;26371;56.992;23.912;2022-11-20T11:35:18;30.38;;;15.63;;
40152;SDS011;26371;56.992;23.912;2022-11-20T11:37:53;29.98;;;16.33;;
40152;SDS011;26371;56.992;23.912;2022-11-20T11:40:30;29.45;;;15.30;;
40152;SDS011;26371;56.992;23.912;2022-11-20T11:43:03;31.67;;;16.65;;
40152;SDS011;26371;56.992;23.912;2022-11-20T11:45:58;30.65;;;15.13;;
40152;SDS011;26371;56.992;23.912;2022-11-20T11:48:26;31.40;;;15.60;;
40152;SDS011;26371;56.992;23.912;2022-11-20T11:50:54;28.83;;;15.77;;
40152;SDS011;26371;56.992;23.912;2022-11-20T11:53:23;30.08;;;15.65;;
40152;SDS011;26371;56.992;23.912;2022-11-20T11:55:56;35.40;;;16.00;;
40152;SDS011;26371;56.992;23.912;2022-11-20T11:58:38;31.48;;;16.17;;
40152;SDS011;26371;56.992;23.912;2022-11-20T12:01:17;28.92;;;15.98;;
40152;SDS011;26371;56.992;23.912;2022-11-20T12:04:02;33.72;;;15.80;;
40152;SDS011;26371;56.992;23.912;2022-11-20T12:06:34;30.65;;;16.25;;
40152;SDS011;26371;56.992;23.912;2022-11-20T12:09:08;31.35;;;15.82;;
40152;SDS011;26371;56.992;23.912;2022-11-20T12:11:42;30.23;;;15.43;;
40152;SDS011;26371;56.992;23.912;2022-11-20T12:14:16;32.20;;;16.05;;
40152;SDS011;26371;56.992;23.912;2022-11-20T12:16:51;34.67;;;16.25;;
40152;SDS011;26371;56.992;23.912;2022-11-20T12:19:22;37.83;;;15.90;;
40152;SDS011;26371;56.992;23.912;2022-11-20T12:21:53;30.92;;;16.60;;
40152;SDS011;26371;56.992;23.912;2022-11-20T12:24:42;33.22;;;16.83;;
40152;SDS011;26371;56.992;23.912;2022-11-20T12:27:27;29.92;;;15.57;;
40152;SDS011;26371;56.992;23.912;2022-11-20T12:30:19;31.65;;;15.88;;
40152;SDS011;26371;56.992;23.912;2022-11-20T12:33:04;31.48;;;15.77;;
40152;SDS011;26371;56.992;23.912;2022-11-20T12:35:52;31.63;;;16.73;;
40152;SDS011;26371;56.992;23.912;2022-11-20T12:41:58;29.65;;;16.17;;
40152;SDS011;26371;56.992;23.912;2022-11-20T12:45:12;31.45;;;16.88;;
40152;SDS011;26371;56.992;23.912;2022-11-20T12:48:23;33.47;;;16.02;;
40152;SDS011;26371;56.992;23.912;2022-11-20T12:51:21;30.25;;;15.52;;
40152;SDS011;26371;56.992;23.912;2022-11-20T12:54:05;30.17;;;15.30;;
40152;SDS011;26371;56.992;23.912;2022-11-20T12:56:53;34.40;;;15.90;;
40152;SDS011;26371;56.992;23.912;2022-11-20T12:59:33;33.00;;;15.43;;
40152;SDS011;26371;56.992;23.912;2022-11-20T13:02:23;34.10;;;16.25;;
40152;SDS011;26371;56.992;23.912;2022-11-20T13:07:50;30.27;;;15.57;;
40152;SDS011;26371;56.992;23.912;2022-11-20T13:10:24;32.92;;;16.88;;
40152;SDS011;26371;56.992;23.912;2022-11-20T13:13:00;33.03;;;17.25;;
40152;SDS011;26371;56.992;23.912;2022-11-20T13:15:38;31.38;;;16.80;;
40152;SDS011;26371;56.992;23.912;2022-11-20T13:18:17;27.42;;;14.35;;
40152;SDS011;26371;56.992;23.912;2022-11-20T13:20:47;31.33;;;15.73;;
40152;SDS011;26371;56.992;23.912;2022-11-20T13:23:25;31.38;;;15.52;;
40152;SDS011;26371;56.992;23.912;2022-11-20T13:26:05;31.15;;;15.57;;
40152;SDS011;26371;56.992;23.912;2022-11-20T13:28:41;26.75;;;13.88;;
40152;SDS011;26371;56.992;23.912;2022-11-20T13:31:23;32.97;;;15.63;;
40152;SDS011;26371;56.992;23.912;2022-11-20T13:34:01;32.08;;;15.30;;
40152;SDS011;26371;56.992;23.912;2022-11-20T13:36:33;30.38;;;13.82;;
40152;SDS011;26371;56.992;23.912;2022-11-20T13:39:03;30.55;;;14.57;;
40152;SDS011;26371;56.992;23.912;2022-11-20T13:41:33;25.80;;;14.27;;
40152;SDS011;26371;56.992;23.912;2022-11-20T13:44:06;29.83;;;14.77;;
40152;SDS011;26371;56.992;23.912;2022-11-20T13:46:41;30.73;;;15.02;;
40152;SDS011;26371;56.992;23.912;2022-11-20T13:49:17;30.77;;;14.43;;
40152;SDS011;26371;56.992;23.912;2022-11-20T13:51:56;33.90;;;15.77;;
40152;SDS011;26371;56.992;23.912;2022-11-20T13:57:39;31.52;;;15.85;;
40152;SDS011;26371;56.992;23.912;2022-11-20T14:00:27;31.27;;;14.77;;
40152;SDS011;26371;56.992;23.912;2022-11-20T14:03:08;31.23;;;15.27;;
40152;SDS011;26371;56.992;23.912;2022-11-20T14:08:41;33.55;;;15.40;;
40152;SDS011;26371;56.992;23.912;2022-11-20T14:11:14;29.98;;;14.85;;
40152;SDS011;26371;56.992;23.912;2022-11-20T14:13:51;31.95;;;15.45;;
40152;SDS011;26371;56.992;23.912;2022-11-20T14:16:22;30.73;;;15.15;;
40152;SDS011;26371;56.992;23.912;2022-11-20T14:21:28;36.58;;;17.65;;
40152;SDS011;26371;56.992;23.912;2022-11-20T14:24:04;41.53;;;17.90;;
40152;SDS011;26371;56.992;23.912;2022-11-20T14:26:33;36.38;;;16.70;;
40152;SDS011;26371;56.992;23.912;2022-11-20T14:29:04;32.22;;;15.48;;
40152;SDS011;26371;56.992;23.912;2022-11-20T14:31:32;35.22;;;17.23;;
40152;SDS011;26371;56.992;23.912;2022-11-20T14:34:01;31.48;;;15.75;;
40152;SDS011;26371;56.992;23.912;2022-11-20T14:36:32;29.77;;;14.43;;
40152;SDS011;26371;56.992;23.912;2022-11-20T14:39:00;31.60;;;16.15;;
40152;SDS011;26371;56.992;23.912;2022-11-20T14:41:29;31.60;;;15.52;;
40152;SDS011;26371;56.992;23.912;2022-11-20T14:43:59;29.02;;;14.43;;
40152;SDS011;26371;56.992;23.912;2022-11-20T14:46:29;30.25;;;15.70;;
40152;SDS011;26371;56.992;23.912;2022-11-20T14:49:00;32.33;;;17.00;;
40152;SDS011;26371;56.992;23.912;2022-11-20T14:51:32;32.95;;;16.98;;
40152;SDS011;26371;56.992;23.912;2022-11-20T14:54:08;32.33;;;16.50;;
40152;SDS011;26371;56.992;23.912;2022-11-20T14:56:38;29.55;;;15.25;;
40152;SDS011;26371;56.992;23.912;2022-11-20T14:59:07;32.03;;;15.40;;
40152;SDS011;26371;56.992;23.912;2022-11-20T15:01:39;29.85;;;15.55;;
40152;SDS011;26371;56.992;23.912;2022-11-20T15:04:09;29.63;;;15.00;;
40152;SDS011;26371;56.992;23.912;2022-11-20T15:06:48;28.95;;;14.95;;
40152;SDS011;26371;56.992;23.912;2022-11-20T15:09:17;27.42;;;14.45;;
40152;SDS011;26371;56.992;23.912;2022-11-20T15:11:51;33.80;;;15.10;;
40152;SDS011;26371;56.992;23.912;2022-11-20T15:14:23;27.73;;;14.43;;
40152;SDS011;26371;56.992;23.912;2022-11-20T15:16:54;28.23;;;14.52;;
40152;SDS011;26371;56.992;23.912;2022-11-20T15:19:24;30.27;;;15.10;;
40152;SDS011;26371;56.992;23.912;2022-11-20T15:21:56;27.05;;;14.50;;